createdAt,value
2022-08-19T00:00:39.942Z,0.00
2022-08-19T00:01:40.088Z,0.00
2022-08-19T00:02:40.331Z,0.00
2022-08-19T00:03:41.278Z,0.00
2022-08-19T00:04:40.426Z,0.00
2022-08-19T00:05:40.553Z,0.00
2022-08-19T00:06:40.675Z,0.00
2022-08-19T00:07:40.798Z,0.00
2022-08-19T00:08:42.816Z,0.00
2022-08-19T00:09:41.078Z,0.00
2022-08-19T00:10:41.257Z,0.00
2022-08-19T00:11:41.294Z,0.00
2022-08-19T00:12:43.929Z,0.00
2022-08-19T00:13:42.508Z,0.00
2022-08-19T00:14:41.628Z,0.00
2022-08-19T00:15:41.784Z,0.00
2022-08-19T00:16:42.451Z,0.00
2022-08-19T00:17:42.119Z,0.00
2022-08-19T00:18:42.128Z,0.00
2022-08-19T00:19:42.251Z,0.00
2022-08-19T00:20:42.405Z,0.00
2022-08-19T00:21:42.579Z,0.00
2022-08-19T00:22:42.710Z,0.00
2022-08-19T00:23:43.046Z,0.00
2022-08-19T00:24:42.947Z,0.00
2022-08-19T00:25:44.054Z,0.00
2022-08-19T00:26:43.246Z,0.00
2022-08-19T00:27:43.351Z,0.00
2022-08-19T00:28:43.498Z,0.00
2022-08-19T00:29:43.621Z,0.00
2022-08-19T00:30:43.717Z,0.00
2022-08-19T00:31:43.841Z,0.00
2022-08-19T00:32:44.002Z,0.00
2022-08-19T00:33:44.146Z,0.00
2022-08-19T00:34:44.287Z,0.00
2022-08-19T00:35:44.794Z,0.00
2022-08-19T00:36:44.532Z,0.00
2022-08-19T00:37:44.749Z,0.00
2022-08-19T00:38:44.918Z,0.00
2022-08-19T00:39:44.952Z,0.00
2022-08-19T00:40:45.097Z,0.00
2022-08-19T00:41:47.670Z,0.00
2022-08-19T00:42:45.353Z,0.00
2022-08-19T00:43:45.496Z,0.00
2022-08-19T00:44:45.635Z,0.00
2022-08-19T00:45:45.785Z,0.00
2022-08-19T00:46:51.628Z,0.00
2022-08-19T00:47:47.045Z,0.00
2022-08-19T00:48:46.167Z,0.00
2022-08-19T00:49:46.304Z,0.00
2022-08-19T00:50:51.620Z,0.00
2022-08-19T00:51:47.543Z,0.00
2022-08-19T00:52:46.705Z,0.00
2022-08-19T00:53:46.856Z,0.00
2022-08-19T00:54:49.695Z,0.00
2022-08-19T00:55:48.074Z,0.00
2022-08-19T00:56:47.265Z,0.00
2022-08-19T00:57:47.404Z,0.00
2022-08-19T00:58:47.512Z,0.00
2022-08-19T01:00:01.924Z,0.00
2022-08-19T01:00:48.725Z,0.00
2022-08-19T01:01:47.912Z,0.00
2022-08-19T01:02:47.971Z,0.00
2022-08-19T01:03:57.218Z,0.00
2022-08-19T01:04:49.194Z,0.00
2022-08-19T01:05:48.324Z,0.00
2022-08-19T01:06:48.474Z,0.00
2022-08-19T01:07:48.593Z,0.00
2022-08-19T01:08:50.086Z,0.00
2022-08-19T01:09:48.844Z,0.00
2022-08-19T01:10:48.977Z,0.00
2022-08-19T01:11:49.120Z,0.00
2022-08-19T01:12:50.255Z,0.00
2022-08-19T01:13:50.392Z,0.00
2022-08-19T01:14:49.544Z,0.00
2022-08-19T01:15:49.679Z,0.00
2022-08-19T01:16:49.809Z,0.00
2022-08-19T01:17:49.949Z,0.00
2022-08-19T01:18:50.076Z,0.00
2022-08-19T01:19:50.206Z,0.00
2022-08-19T01:20:50.355Z,0.00
2022-08-19T01:21:50.485Z,0.00
2022-08-19T01:22:50.662Z,0.00
2022-08-19T01:23:50.795Z,0.00
2022-08-19T01:24:50.934Z,0.00
2022-08-19T01:25:51.136Z,0.00
2022-08-19T01:26:51.155Z,0.00
2022-08-19T01:27:53.512Z,0.00
2022-08-19T01:28:51.875Z,0.00
2022-08-19T01:29:51.576Z,0.00
2022-08-19T01:30:51.705Z,0.00
2022-08-19T01:31:51.820Z,0.00
2022-08-19T01:32:52.073Z,0.00
2022-08-19T01:33:52.180Z,0.00
2022-08-19T01:34:52.315Z,0.00
2022-08-19T01:35:52.442Z,0.00
2022-08-19T01:36:52.603Z,0.00
2022-08-19T01:37:52.756Z,0.00
2022-08-19T01:38:52.902Z,0.00
2022-08-19T01:39:53.080Z,0.00
2022-08-19T01:40:53.121Z,0.00
2022-08-19T01:41:53.257Z,0.00
2022-08-19T01:42:53.603Z,0.00
2022-08-19T01:44:17.227Z,0.00
2022-08-19T01:44:54.713Z,0.00
2022-08-19T01:45:53.828Z,0.00
2022-08-19T01:46:53.985Z,0.00
2022-08-19T01:48:01.377Z,0.00
2022-08-19T01:48:55.219Z,0.00
2022-08-19T01:49:54.356Z,0.00
2022-08-19T01:50:54.486Z,0.00
2022-08-19T01:51:54.629Z,0.00
2022-08-19T01:53:06.272Z,0.00
2022-08-19T01:53:55.861Z,0.00
2022-08-19T01:54:55.017Z,0.00
2022-08-19T01:55:55.163Z,0.00
2022-08-19T01:56:55.304Z,0.00
2022-08-19T01:57:55.447Z,0.00
2022-08-19T01:58:55.600Z,0.00
2022-08-19T01:59:55.763Z,0.00
2022-08-19T02:00:55.923Z,0.00
2022-08-19T02:01:56.063Z,0.00
2022-08-19T02:02:56.212Z,0.00
2022-08-19T02:03:56.875Z,0.00
2022-08-19T02:04:56.515Z,0.00
2022-08-19T02:05:56.643Z,0.00
2022-08-19T02:06:56.792Z,0.00
2022-08-19T02:07:56.958Z,0.00
2022-08-19T02:08:57.425Z,0.00
2022-08-19T02:09:57.271Z,0.00
2022-08-19T02:10:57.418Z,0.00
2022-08-19T02:11:57.561Z,0.00
2022-08-19T02:12:57.720Z,0.00
2022-08-19T02:13:57.839Z,0.00
2022-08-19T02:14:57.993Z,0.00
2022-08-19T02:15:58.177Z,0.00
2022-08-19T02:16:58.316Z,0.00
2022-08-19T02:17:58.472Z,0.00
2022-08-19T02:18:58.602Z,0.00
2022-08-19T02:19:58.762Z,0.00
2022-08-19T02:20:58.916Z,0.00
2022-08-19T02:21:59.062Z,0.00
2022-08-19T02:22:59.233Z,0.00
2022-08-19T02:23:59.376Z,0.00
2022-08-19T02:24:59.524Z,0.00
2022-08-19T02:25:59.665Z,0.00
2022-08-19T02:26:59.832Z,0.00
2022-08-19T02:27:59.999Z,0.00
2022-08-19T02:29:00.154Z,0.00
2022-08-19T02:30:00.301Z,0.00
2022-08-19T02:31:00.450Z,0.00
2022-08-19T02:32:00.602Z,0.00
2022-08-19T02:33:00.752Z,0.00
2022-08-19T02:34:00.890Z,0.00
2022-08-19T02:35:01.055Z,0.00
2022-08-19T02:36:01.191Z,0.00
2022-08-19T02:37:03.750Z,0.00
2022-08-19T02:38:01.451Z,0.00
2022-08-19T02:39:01.587Z,0.00
2022-08-19T02:40:01.819Z,0.00
2022-08-19T02:41:01.907Z,0.00
2022-08-19T02:42:02.085Z,0.00
2022-08-19T02:43:02.239Z,0.00
2022-08-19T02:44:26.235Z,0.00
2022-08-19T02:45:03.478Z,0.00
2022-08-19T02:46:03.524Z,0.00
2022-08-19T02:47:02.800Z,0.00
2022-08-19T02:48:03.359Z,0.00
2022-08-19T02:49:04.029Z,0.00
2022-08-19T02:50:03.159Z,0.00
2022-08-19T02:51:03.306Z,0.00
2022-08-19T02:52:03.439Z,0.00
2022-08-19T02:53:03.597Z,0.00
2022-08-19T02:54:03.740Z,0.00
2022-08-19T02:55:03.879Z,0.00
2022-08-19T02:56:04.009Z,0.00
2022-08-19T02:57:04.154Z,0.00
2022-08-19T02:58:04.299Z,0.00
2022-08-19T02:59:04.438Z,0.00
2022-08-19T03:00:04.605Z,0.00
2022-08-19T03:01:04.774Z,0.00
2022-08-19T03:02:04.827Z,0.00
2022-08-19T03:03:04.973Z,0.00
2022-08-19T03:04:05.095Z,0.00
2022-08-19T03:05:05.237Z,0.00
2022-08-19T03:06:05.375Z,0.00
2022-08-19T03:07:11.166Z,0.00
2022-08-19T03:08:06.607Z,0.00
2022-08-19T03:09:05.742Z,0.00
2022-08-19T03:10:05.873Z,0.00
2022-08-19T03:11:06.013Z,0.00
2022-08-19T03:12:06.144Z,0.00
2022-08-19T03:13:06.274Z,0.00
2022-08-19T03:14:06.441Z,0.00
2022-08-19T03:15:06.567Z,0.00
2022-08-19T03:16:06.699Z,0.00
2022-08-19T03:17:06.826Z,0.00
2022-08-19T03:18:06.959Z,0.00
2022-08-19T03:19:07.078Z,0.00
2022-08-19T03:20:07.224Z,0.00
2022-08-19T03:21:07.353Z,0.00
2022-08-19T03:22:08.447Z,0.00
2022-08-19T03:23:07.598Z,0.00
2022-08-19T03:24:07.748Z,0.00
2022-08-19T03:25:07.886Z,4.00
2022-08-19T03:26:15.813Z,4.00
2022-08-19T03:27:09.132Z,4.00
2022-08-19T03:28:08.270Z,0.00
2022-08-19T03:29:08.654Z,4.00
2022-08-19T03:30:08.477Z,4.00
2022-08-19T03:31:44.050Z,4.00
2022-08-19T03:32:09.733Z,4.00
2022-08-19T03:33:09.926Z,8.00
2022-08-19T03:34:10.021Z,8.00
2022-08-19T03:35:09.187Z,4.00
2022-08-19T03:36:09.327Z,12.00
2022-08-19T03:37:09.491Z,12.00
2022-08-19T03:38:09.638Z,12.00
2022-08-19T03:39:09.796Z,16.00
2022-08-19T03:40:10.013Z,16.00
2022-08-19T03:41:10.015Z,16.00
2022-08-19T03:42:38.464Z,20.00
2022-08-19T03:43:11.267Z,20.00
2022-08-19T03:44:14.301Z,24.00
2022-08-19T03:45:11.513Z,28.00
2022-08-19T03:46:10.652Z,28.00
2022-08-19T03:47:10.792Z,32.00
2022-08-19T03:48:10.939Z,36.00
2022-08-19T03:49:11.098Z,36.00
2022-08-19T03:50:11.234Z,36.00
2022-08-19T03:51:11.408Z,40.00
2022-08-19T03:52:11.541Z,44.00
2022-08-19T03:53:11.702Z,52.00
2022-08-19T03:54:18.861Z,56.00
2022-08-19T03:55:11.983Z,60.00
2022-08-19T03:56:12.110Z,64.00
2022-08-19T03:57:12.244Z,68.00
2022-08-19T03:58:12.378Z,76.00
2022-08-19T03:59:12.506Z,84.00
2022-08-19T04:00:14.004Z,88.00
2022-08-19T04:01:12.797Z,92.00
2022-08-19T04:02:12.911Z,100.00
2022-08-19T04:03:13.061Z,112.00
2022-08-19T04:04:13.211Z,120.00
2022-08-19T04:05:13.367Z,128.00
2022-08-19T04:06:13.505Z,136.00
2022-08-19T04:07:13.651Z,148.00
2022-08-19T04:08:14.096Z,160.00
2022-08-19T04:09:13.889Z,172.00
2022-08-19T04:10:14.039Z,188.00
2022-08-19T04:11:14.234Z,204.00
2022-08-19T04:12:14.369Z,216.00
2022-08-19T04:13:14.510Z,228.00
2022-08-19T04:14:14.661Z,252.00
2022-08-19T04:15:14.827Z,268.00
2022-08-19T04:16:14.999Z,284.00
2022-08-19T04:17:15.133Z,292.00
2022-08-19T04:18:15.271Z,312.00
2022-08-19T04:19:15.408Z,332.00
2022-08-19T04:20:15.587Z,352.00
2022-08-19T04:21:15.770Z,368.00
2022-08-19T04:22:15.917Z,376.00
2022-08-19T04:23:16.053Z,380.00
2022-08-19T04:24:16.199Z,388.00
2022-08-19T04:25:16.349Z,396.00
2022-08-19T04:26:16.496Z,400.00
2022-08-19T04:27:16.641Z,404.00
2022-08-19T04:28:16.781Z,412.00
2022-08-19T04:29:16.936Z,416.00
2022-08-19T04:30:17.106Z,424.00
2022-08-19T04:31:17.231Z,436.00
2022-08-19T04:32:17.358Z,452.00
2022-08-19T04:33:17.501Z,484.00
2022-08-19T04:34:18.583Z,520.00
2022-08-19T04:35:21.024Z,556.00
2022-08-19T04:36:18.829Z,580.00
2022-08-19T04:37:17.989Z,592.00
2022-08-19T04:38:18.134Z,604.00
2022-08-19T04:39:18.269Z,616.00
2022-08-19T04:40:18.427Z,644.00
2022-08-19T04:41:18.565Z,680.00
2022-08-19T04:42:18.732Z,728.00
2022-08-19T04:43:18.873Z,784.00
2022-08-19T04:44:19.045Z,840.00
2022-08-19T04:45:19.194Z,896.00
2022-08-19T04:46:39.158Z,960.00
2022-08-19T04:47:20.914Z,1012.00
2022-08-19T04:48:27.558Z,1076.00
2022-08-19T04:49:20.624Z,1132.00
2022-08-19T04:50:19.787Z,1200.00
2022-08-19T04:51:19.929Z,1320.00
2022-08-19T04:52:20.066Z,1468.00
2022-08-19T04:53:20.198Z,1616.00
2022-08-19T04:54:37.094Z,1752.00
2022-08-19T04:55:21.441Z,1912.00
2022-08-19T04:56:20.599Z,2040.00
2022-08-19T04:57:20.738Z,2116.00
2022-08-19T04:58:20.896Z,2180.00
2022-08-19T04:59:21.037Z,2252.00
2022-08-19T05:00:21.200Z,2332.00
2022-08-19T05:01:21.457Z,2372.00
2022-08-19T05:02:21.544Z,2412.00
2022-08-19T05:03:21.653Z,2468.00
2022-08-19T05:04:21.787Z,2532.00
2022-08-19T05:05:21.943Z,2628.00
2022-08-19T05:06:22.107Z,2684.00
2022-08-19T05:07:22.241Z,2688.00
2022-08-19T05:08:31.234Z,2716.00
2022-08-19T05:09:23.494Z,2756.00
2022-08-19T05:10:22.618Z,2800.00
2022-08-19T05:11:26.418Z,2848.00
2022-08-19T05:12:25.842Z,2904.00
2022-08-19T05:13:23.988Z,2968.00
2022-08-19T05:14:23.115Z,3040.00
2022-08-19T05:15:23.254Z,3140.00
2022-08-19T05:16:23.429Z,3248.00
2022-08-19T05:17:27.691Z,3376.00
2022-08-19T05:18:24.606Z,3512.00
2022-08-19T05:19:23.756Z,3640.00
2022-08-19T05:20:23.891Z,3772.00
2022-08-19T05:21:24.028Z,3880.00
2022-08-19T05:22:24.184Z,3980.00
2022-08-19T05:23:24.344Z,4092.00
2022-08-19T05:24:24.473Z,4204.00
2022-08-19T05:25:24.614Z,4324.00
2022-08-19T05:26:24.805Z,4444.00
2022-08-19T05:27:24.908Z,4524.00
2022-08-19T05:28:25.066Z,4568.00
2022-08-19T05:29:25.177Z,4600.00
2022-08-19T05:30:37.615Z,4604.00
2022-08-19T05:31:26.449Z,4572.00
2022-08-19T05:32:25.588Z,4504.00
2022-08-19T05:33:25.715Z,4436.00
2022-08-19T05:34:25.836Z,4392.00
2022-08-19T05:35:25.962Z,4344.00
2022-08-19T05:36:26.086Z,4348.00
2022-08-19T05:37:26.215Z,4372.00
2022-08-19T05:38:26.350Z,4384.00
2022-08-19T05:39:26.512Z,4420.00
2022-08-19T05:40:26.799Z,4488.00
2022-08-19T05:41:26.769Z,4556.00
2022-08-19T05:42:26.910Z,4620.00
2022-08-19T05:43:27.045Z,4660.00
2022-08-19T05:44:27.167Z,4632.00
2022-08-19T05:45:27.276Z,4556.00
2022-08-19T05:46:28.016Z,4512.00
2022-08-19T05:47:27.556Z,4516.00
2022-08-19T05:48:27.679Z,4548.00
2022-08-19T05:49:27.790Z,4592.00
2022-08-19T05:50:27.909Z,4604.00
2022-08-19T05:51:29.252Z,4504.00
2022-08-19T05:52:28.210Z,4384.00
2022-08-19T05:53:28.338Z,4316.00
2022-08-19T05:54:28.477Z,4332.00
2022-08-19T05:55:28.587Z,4488.00
2022-08-19T05:56:28.704Z,4744.00
2022-08-19T05:57:28.837Z,4688.00
2022-08-19T05:58:28.963Z,4616.00
2022-08-19T05:59:29.072Z,4452.00
2022-08-19T06:00:29.189Z,4284.00
2022-08-19T06:01:29.312Z,4196.00
2022-08-19T06:02:29.502Z,4128.00
2022-08-19T06:03:29.516Z,4132.00
2022-08-19T06:04:29.646Z,4128.00
2022-08-19T06:05:29.776Z,4168.00
2022-08-19T06:06:29.906Z,4248.00
2022-08-19T06:07:30.114Z,4348.00
2022-08-19T06:08:34.618Z,4476.00
2022-08-19T06:09:30.187Z,4564.00
2022-08-19T06:10:30.314Z,4640.00
2022-08-19T06:11:30.427Z,4704.00
2022-08-19T06:12:30.566Z,4816.00
2022-08-19T06:13:33.305Z,4912.00
2022-08-19T06:14:30.781Z,4988.00
2022-08-19T06:15:30.821Z,5040.00
2022-08-19T06:16:30.956Z,5076.00
2022-08-19T06:17:31.726Z,5028.00
2022-08-19T06:18:31.160Z,5048.00
2022-08-19T06:19:31.286Z,5108.00
2022-08-19T06:20:54.529Z,5160.00
2022-08-19T06:21:32.475Z,5188.00
2022-08-19T06:22:31.625Z,5216.00
2022-08-19T06:23:31.754Z,5228.00
2022-08-19T06:24:31.875Z,5232.00
2022-08-19T06:25:32.006Z,5204.00
2022-08-19T06:26:32.137Z,5132.00
2022-08-19T06:27:32.279Z,5080.00
2022-08-19T06:28:32.396Z,5112.00
2022-08-19T06:29:32.518Z,5228.00
2022-08-19T06:30:32.639Z,5340.00
2022-08-19T06:31:32.777Z,5452.00
2022-08-19T06:32:32.924Z,5388.00
2022-08-19T06:33:33.051Z,5228.00
2022-08-19T06:34:33.186Z,4892.00
2022-08-19T06:35:33.325Z,4512.00
2022-08-19T06:36:33.467Z,4036.00
2022-08-19T06:37:33.627Z,3552.00
2022-08-19T06:38:33.721Z,3156.00
2022-08-19T06:39:33.930Z,2948.00
2022-08-19T06:40:34.007Z,2836.00
2022-08-19T06:41:33.997Z,2748.00
2022-08-19T06:42:34.166Z,2684.00
2022-08-19T06:43:34.179Z,2592.00
2022-08-19T06:44:34.343Z,2608.00
2022-08-19T06:45:35.809Z,2668.00
2022-08-19T06:46:35.535Z,2564.00
2022-08-19T06:47:34.681Z,2536.00
2022-08-19T06:48:39.050Z,2560.00
2022-08-19T06:49:35.886Z,2536.00
2022-08-19T06:50:35.003Z,2608.00
2022-08-19T06:51:35.201Z,2768.00
2022-08-19T06:52:36.465Z,3064.00
2022-08-19T06:53:35.314Z,3336.00
2022-08-19T06:54:37.761Z,3456.00
2022-08-19T06:55:36.500Z,3572.00
2022-08-19T06:56:35.630Z,3616.00
2022-08-19T06:57:35.760Z,3712.00
2022-08-19T06:58:35.867Z,3808.00
2022-08-19T06:59:35.986Z,3868.00
2022-08-19T07:00:36.108Z,3848.00
2022-08-19T07:01:36.217Z,3924.00
2022-08-19T07:02:36.331Z,4016.00
2022-08-19T07:03:37.358Z,4332.00
2022-08-19T07:04:36.508Z,4636.00
2022-08-19T07:05:37.265Z,4712.00
2022-08-19T07:06:44.006Z,4816.00
2022-08-19T07:07:37.776Z,4856.00
2022-08-19T07:09:37.061Z,5168.00
2022-08-19T07:10:37.172Z,5472.00
2022-08-19T07:11:38.234Z,5772.00
2022-08-19T07:12:38.190Z,6032.00
2022-08-19T07:13:37.479Z,6376.00
2022-08-19T07:14:37.594Z,6436.00
2022-08-19T07:15:37.723Z,6352.00
2022-08-19T07:16:42.473Z,6336.00
2022-08-19T07:17:39.121Z,6296.00
2022-08-19T07:18:38.011Z,6528.00
2022-08-19T07:19:38.197Z,6660.00
2022-08-19T07:20:38.300Z,6680.00
2022-08-19T07:21:38.429Z,6580.00
2022-08-19T07:22:38.585Z,6568.00
2022-08-19T07:23:38.689Z,6468.00
2022-08-19T07:24:38.796Z,6024.00
2022-08-19T07:25:39.855Z,6412.00
2022-08-19T07:26:39.021Z,7068.00
2022-08-19T07:27:39.687Z,7364.00
2022-08-19T07:28:39.107Z,7620.00
2022-08-19T07:29:40.163Z,7932.00
2022-08-19T07:30:39.289Z,7936.00
2022-08-19T07:31:39.410Z,7904.00
2022-08-19T07:32:39.615Z,7764.00
2022-08-19T07:33:39.639Z,7208.00
2022-08-19T07:34:40.067Z,7184.00
2022-08-19T07:35:39.829Z,7480.00
2022-08-19T07:36:39.933Z,7536.00
2022-08-19T07:37:40.035Z,6488.00
2022-08-19T07:38:40.156Z,6056.00
2022-08-19T07:39:40.286Z,5896.00
2022-08-19T07:40:40.350Z,6196.00
2022-08-19T07:41:40.460Z,5984.00
2022-08-19T07:42:40.571Z,5512.00
2022-08-19T07:43:40.671Z,5028.00
2022-08-19T07:45:40.919Z,4192.00
2022-08-19T07:46:41.030Z,4288.00
2022-08-19T07:47:58.578Z,4068.00
2022-08-19T07:48:42.202Z,3876.00
2022-08-19T07:49:41.324Z,3928.00
2022-08-19T07:50:41.446Z,4292.00
2022-08-19T07:51:41.558Z,4420.00
2022-08-19T07:52:41.654Z,3776.00
2022-08-19T07:53:41.765Z,3812.00
2022-08-19T07:54:41.881Z,4268.00
2022-08-19T07:55:43.766Z,4588.00
2022-08-19T07:56:42.088Z,4564.00
2022-08-19T07:57:42.191Z,4276.00
2022-08-19T07:58:42.316Z,4032.00
2022-08-19T07:59:42.421Z,4104.00
2022-08-19T08:00:42.556Z,4628.00
2022-08-19T08:01:42.715Z,4112.00
2022-08-19T08:02:42.788Z,3692.00
2022-08-19T08:03:42.918Z,3652.00
2022-08-19T08:04:43.023Z,3588.00
2022-08-19T08:05:44.203Z,3684.00
2022-08-19T08:06:43.235Z,3920.00
2022-08-19T08:07:46.214Z,3748.00
2022-08-19T08:08:44.494Z,3304.00
2022-08-19T08:09:43.603Z,3120.00
2022-08-19T08:10:44.607Z,3088.00
2022-08-19T08:11:44.784Z,3056.00
2022-08-19T08:12:43.895Z,3076.00
2022-08-19T08:13:45.008Z,3068.00
2022-08-19T08:14:44.250Z,3032.00
2022-08-19T08:15:44.208Z,3204.00
2022-08-19T08:16:47.070Z,3476.00
2022-08-19T08:17:49.341Z,3796.00
2022-08-19T08:18:50.770Z,3720.00
2022-08-19T08:19:45.602Z,4064.00
2022-08-19T08:20:44.803Z,4560.00
2022-08-19T08:21:44.818Z,5412.00
2022-08-19T08:22:44.947Z,5616.00
2022-08-19T08:23:45.133Z,4924.00
2022-08-19T08:24:45.144Z,4284.00
2022-08-19T08:25:45.236Z,4224.00
2022-08-19T08:26:46.878Z,4024.00
2022-08-19T08:27:46.360Z,3764.00
2022-08-19T08:28:47.965Z,3680.00
2022-08-19T08:29:45.596Z,3628.00
2022-08-19T08:30:45.721Z,3664.00
2022-08-19T08:31:45.851Z,3756.00
2022-08-19T08:32:46.104Z,3948.00
2022-08-19T08:33:46.091Z,4072.00
2022-08-19T08:34:47.347Z,4392.00
2022-08-19T08:35:47.296Z,5064.00
2022-08-19T08:36:46.442Z,5896.00
2022-08-19T08:37:46.797Z,6128.00
2022-08-19T08:38:46.783Z,5264.00
2022-08-19T08:39:47.054Z,4460.00
2022-08-19T08:40:46.978Z,4004.00
2022-08-19T08:41:47.076Z,4124.00
2022-08-19T08:42:47.255Z,4264.00
2022-08-19T08:43:47.373Z,4024.00
2022-08-19T08:44:47.532Z,3676.00
2022-08-19T08:45:47.541Z,3392.00
2022-08-19T08:46:48.617Z,3260.00
2022-08-19T08:47:47.814Z,3276.00
2022-08-19T08:48:47.878Z,3336.00
2022-08-19T08:49:51.290Z,3328.00
2022-08-19T08:50:48.117Z,3272.00
2022-08-19T08:51:48.157Z,3284.00
2022-08-19T08:52:49.218Z,3396.00
2022-08-19T08:53:48.339Z,3536.00
2022-08-19T08:54:54.978Z,3608.00
2022-08-19T08:55:49.519Z,3644.00
2022-08-19T08:56:48.652Z,3496.00
2022-08-19T08:57:48.792Z,3232.00
2022-08-19T08:58:53.864Z,3004.00
2022-08-19T08:59:49.991Z,2796.00
2022-08-19T09:00:49.107Z,2692.00
2022-08-19T09:01:49.353Z,2584.00
2022-08-19T09:02:50.398Z,2356.00
2022-08-19T09:03:49.407Z,2080.00
2022-08-19T09:04:49.527Z,1924.00
2022-08-19T09:05:49.607Z,1964.00
2022-08-19T09:06:49.693Z,2220.00
2022-08-19T09:07:49.850Z,2768.00
2022-08-19T09:08:50.022Z,3352.00
2022-08-19T09:09:50.136Z,4032.00
2022-08-19T09:10:55.292Z,4568.00
2022-08-19T09:11:51.360Z,4816.00
2022-08-19T09:12:50.438Z,5196.00
2022-08-19T09:13:50.573Z,5676.00
2022-08-19T09:14:52.029Z,6088.00
2022-08-19T09:15:50.856Z,6424.00
2022-08-19T09:16:50.966Z,6820.00
2022-08-19T09:17:51.084Z,7576.00
2022-08-19T09:18:51.167Z,8112.00
2022-08-19T09:19:51.320Z,9004.00
2022-08-19T09:20:51.437Z,9456.00
2022-08-19T09:21:51.602Z,10008.00
2022-08-19T09:22:51.723Z,10592.00
2022-08-19T09:23:51.834Z,10568.00
2022-08-19T09:24:52.006Z,9968.00
2022-08-19T09:25:52.033Z,8884.00
2022-08-19T09:26:52.980Z,7980.00
2022-08-19T09:27:52.249Z,7480.00
2022-08-19T09:28:52.380Z,6832.00
2022-08-19T09:29:52.557Z,6260.00
2022-08-19T09:30:52.962Z,5952.00
2022-08-19T09:31:52.727Z,5948.00
2022-08-19T09:32:53.195Z,6248.00
2022-08-19T09:33:52.954Z,6760.00
2022-08-19T09:34:53.125Z,7456.00
2022-08-19T09:35:53.963Z,8088.00
2022-08-19T09:36:53.344Z,7928.00
2022-08-19T09:37:57.779Z,7992.00
2022-08-19T09:38:54.559Z,7852.00
2022-08-19T09:39:53.771Z,7584.00
2022-08-19T09:40:53.726Z,7936.00
2022-08-19T09:41:53.875Z,8220.00
2022-08-19T09:42:54.008Z,8476.00
2022-08-19T09:43:54.113Z,8328.00
2022-08-19T09:44:54.244Z,8288.00
2022-08-19T09:45:54.374Z,8120.00
2022-08-19T09:46:54.498Z,7892.00
2022-08-19T09:47:55.309Z,7576.00
2022-08-19T09:48:54.739Z,7184.00
2022-08-19T09:49:54.900Z,6928.00
2022-08-19T09:50:55.003Z,6908.00
2022-08-19T09:51:55.146Z,6416.00
2022-08-19T09:52:57.349Z,5808.00
2022-08-19T09:54:04.666Z,5320.00
2022-08-19T09:54:58.151Z,4356.00
2022-08-19T09:55:55.584Z,3776.00
2022-08-19T09:56:55.696Z,3632.00
2022-08-19T09:57:55.801Z,3520.00
2022-08-19T09:58:55.920Z,3324.00
2022-08-19T09:59:56.052Z,3404.00
2022-08-19T10:00:56.220Z,3900.00
2022-08-19T10:01:56.261Z,3684.00
2022-08-19T10:02:57.328Z,3380.00
2022-08-19T10:03:56.451Z,3412.00
2022-08-19T10:04:56.504Z,3436.00
2022-08-19T10:05:56.541Z,3868.00
2022-08-19T10:06:56.646Z,4524.00
2022-08-19T10:07:56.910Z,5276.00
2022-08-19T10:08:56.835Z,5720.00
2022-08-19T10:09:56.945Z,5940.00
2022-08-19T10:10:57.055Z,5260.00
2022-08-19T10:11:57.145Z,4604.00
2022-08-19T10:12:57.253Z,4396.00
2022-08-19T10:13:57.361Z,4436.00
2022-08-19T10:14:57.478Z,5316.00
2022-08-19T10:15:57.784Z,6324.00
2022-08-19T10:16:59.268Z,7348.00
2022-08-19T10:17:58.767Z,8628.00
2022-08-19T10:18:58.888Z,9100.00
2022-08-19T10:19:57.924Z,8588.00
2022-08-19T10:20:58.018Z,7744.00
2022-08-19T10:22:00.355Z,7256.00
2022-08-19T10:22:58.267Z,8072.00
2022-08-19T10:23:58.382Z,9288.00
2022-08-19T10:24:58.547Z,10664.00
2022-08-19T10:25:58.597Z,11108.00
2022-08-19T10:26:59.820Z,12268.00
2022-08-19T10:27:58.699Z,13848.00
2022-08-19T10:28:58.805Z,12920.00
2022-08-19T10:29:58.881Z,14804.00
2022-08-19T10:30:58.955Z,14576.00
2022-08-19T10:32:00.521Z,15200.00
2022-08-19T10:32:59.211Z,16992.00
2022-08-19T10:33:59.324Z,17472.00
2022-08-19T10:34:59.378Z,13332.00
2022-08-19T10:35:59.477Z,8412.00
2022-08-19T10:37:01.095Z,7024.00
2022-08-19T10:38:02.157Z,7180.00
2022-08-19T10:38:59.832Z,7104.00
2022-08-19T10:39:59.917Z,5768.00
2022-08-19T10:40:59.902Z,4284.00
2022-08-19T10:42:00.179Z,4292.00
2022-08-19T10:43:00.060Z,4788.00
2022-08-19T10:44:04.516Z,4952.00
2022-08-19T10:45:00.370Z,3972.00
2022-08-19T10:46:00.390Z,3208.00
2022-08-19T10:47:00.495Z,2988.00
2022-08-19T10:48:00.593Z,2908.00
2022-08-19T10:49:00.712Z,2736.00
2022-08-19T10:50:00.824Z,2728.00
2022-08-19T10:51:00.924Z,2756.00
2022-08-19T10:52:00.994Z,2852.00
2022-08-19T10:53:01.102Z,3112.00
2022-08-19T10:54:02.161Z,3112.00
2022-08-19T10:55:05.382Z,2860.00
2022-08-19T10:56:02.340Z,2576.00
2022-08-19T10:57:01.441Z,2764.00
2022-08-19T10:58:02.783Z,3104.00
2022-08-19T10:59:01.614Z,3356.00
2022-08-19T11:00:01.756Z,3168.00
2022-08-19T11:01:01.901Z,2932.00
2022-08-19T11:02:02.000Z,3024.00
2022-08-19T11:03:02.116Z,3056.00
2022-08-19T11:04:02.227Z,3048.00
2022-08-19T11:05:12.345Z,3400.00
2022-08-19T11:06:03.412Z,3448.00
2022-08-19T11:07:02.519Z,3552.00
2022-08-19T11:08:02.916Z,3640.00
2022-08-19T11:09:03.693Z,3580.00
2022-08-19T11:10:02.817Z,3452.00
2022-08-19T11:11:02.925Z,3392.00
2022-08-19T11:12:04.822Z,3168.00
2022-08-19T11:13:03.158Z,3144.00
2022-08-19T11:14:03.285Z,3244.00
2022-08-19T11:15:03.409Z,3156.00
2022-08-19T11:16:07.313Z,3144.00
2022-08-19T11:17:03.593Z,3068.00
2022-08-19T11:18:03.694Z,2968.00
2022-08-19T11:19:03.759Z,3264.00
2022-08-19T11:20:03.876Z,3560.00
2022-08-19T11:21:03.971Z,3748.00
2022-08-19T11:22:04.131Z,3848.00
2022-08-19T11:23:04.448Z,3960.00
2022-08-19T11:24:04.359Z,3944.00
2022-08-19T11:25:04.483Z,4068.00
2022-08-19T11:26:04.593Z,4296.00
2022-08-19T11:27:04.701Z,4220.00
2022-08-19T11:28:04.811Z,4044.00
2022-08-19T11:29:04.922Z,4000.00
2022-08-19T11:30:05.061Z,3876.00
2022-08-19T11:31:05.114Z,3876.00
2022-08-19T11:32:05.231Z,4100.00
2022-08-19T11:33:05.334Z,4112.00
2022-08-19T11:34:05.449Z,4788.00
2022-08-19T11:35:05.563Z,4980.00
2022-08-19T11:36:05.668Z,4896.00
2022-08-19T11:37:05.777Z,4664.00
2022-08-19T11:38:09.725Z,4252.00
2022-08-19T11:39:05.948Z,4136.00
2022-08-19T11:40:06.126Z,4068.00
2022-08-19T11:41:06.095Z,3772.00
2022-08-19T11:42:06.211Z,3684.00
2022-08-19T11:43:06.310Z,3820.00
2022-08-19T11:44:06.423Z,3976.00
2022-08-19T11:45:06.547Z,3904.00
2022-08-19T11:46:06.652Z,3804.00
2022-08-19T11:47:09.135Z,3580.00
2022-08-19T11:48:06.812Z,3844.00
2022-08-19T11:49:10.648Z,3968.00
2022-08-19T11:50:08.013Z,3952.00
2022-08-19T11:51:07.146Z,4032.00
2022-08-19T11:52:07.234Z,4292.00
2022-08-19T11:53:07.383Z,4772.00
2022-08-19T11:54:07.480Z,4596.00
2022-08-19T11:55:07.579Z,4420.00
2022-08-19T11:56:07.696Z,4104.00
2022-08-19T11:57:07.773Z,3856.00
2022-08-19T11:58:07.872Z,3416.00
2022-08-19T11:59:12.846Z,2920.00
2022-08-19T12:00:09.069Z,2808.00
2022-08-19T12:01:08.172Z,2836.00
2022-08-19T12:02:08.280Z,2988.00
2022-08-19T12:03:08.398Z,3180.00
2022-08-19T12:04:08.564Z,3632.00
2022-08-19T12:05:12.291Z,3660.00
2022-08-19T12:06:08.652Z,4012.00
2022-08-19T12:07:08.749Z,4552.00
2022-08-19T12:08:08.860Z,4912.00
2022-08-19T12:09:08.968Z,4812.00
2022-08-19T12:10:09.235Z,4732.00
2022-08-19T12:11:09.261Z,4820.00
2022-08-19T12:12:09.361Z,5100.00
2022-08-19T12:13:09.462Z,5296.00
2022-08-19T12:14:09.829Z,4640.00
2022-08-19T12:15:09.654Z,4700.00
2022-08-19T12:16:09.786Z,5040.00
2022-08-19T12:17:09.908Z,4968.00
2022-08-19T12:18:10.012Z,4764.00
2022-08-19T12:19:10.158Z,4736.00
2022-08-19T12:20:10.278Z,5016.00
2022-08-19T12:21:10.392Z,5216.00
2022-08-19T12:22:10.506Z,4324.00
2022-08-19T12:23:10.611Z,3180.00
2022-08-19T12:24:10.724Z,2680.00
2022-08-19T12:25:10.830Z,2648.00
2022-08-19T12:26:10.962Z,3088.00
2022-08-19T12:27:12.753Z,3564.00
2022-08-19T12:28:11.163Z,3604.00
2022-08-19T12:29:11.274Z,3612.00
2022-08-19T12:30:11.381Z,3684.00
2022-08-19T12:31:11.500Z,4512.00